Skokomish, Washington
Current Conditions -  °F | °C
As of 1:53 PM on Sunday 21 Dec 2014 (Local Time) from KSHN Reporting Station
Broken Clouds Broken Clouds  
Wind Chill: 52°   Ceiling: 3400
Heat Index: 52°   Visibility: 10mi
Dew Point: 47°   Wind: 12mph
Humidity: 83%   Direction: 230°SW
Pressure: 29.98"   Gusts: NA
Location:  47.1839°N, 123.15°W
Report Text: KSHN 212153Z AUTO 23010KT 10SM FEW020 BKN034 BKN042 11/08 A2998 RMK AO2 RAB16E29 SLP152 P0000 T01110083
Loading
Personal Weather Stations






























Interactive Weather Map New forecast layout! Learn more

10-Day Weather Forecast

Advertisements
Track Severe Weather on mobile